sensor_id;sensor_type;location;lat;lon;timestamp;P1;durP1;ratioP1;P2;durP2;ratioP2
36291;SDS011;22327;51.208;6.418;2023-05-07T00:02:12;7.72;;;6.80;;
36291;SDS011;22327;51.208;6.418;2023-05-07T00:04:38;8.40;;;7.57;;
36291;SDS011;22327;51.208;6.418;2023-05-07T00:07:04;8.93;;;7.35;;
36291;SDS011;22327;51.208;6.418;2023-05-07T00:09:30;9.05;;;7.13;;
36291;SDS011;22327;51.208;6.418;2023-05-07T00:11:56;7.88;;;7.07;;
36291;SDS011;22327;51.208;6.418;2023-05-07T00:14:21;7.63;;;6.82;;
36291;SDS011;22327;51.208;6.418;2023-05-07T00:16:47;9.18;;;7.53;;
36291;SDS011;22327;51.208;6.418;2023-05-07T00:19:12;8.13;;;7.05;;
36291;SDS011;22327;51.208;6.418;2023-05-07T00:21:38;8.68;;;7.43;;
36291;SDS011;22327;51.208;6.418;2023-05-07T00:24:03;8.57;;;7.22;;
36291;SDS011;22327;51.208;6.418;2023-05-07T00:26:29;12.18;;;8.07;;
36291;SDS011;22327;51.208;6.418;2023-05-07T00:28:55;7.78;;;6.93;;
36291;SDS011;22327;51.208;6.418;2023-05-07T00:31:20;9.40;;;7.03;;
36291;SDS011;22327;51.208;6.418;2023-05-07T00:33:46;8.10;;;7.30;;
36291;SDS011;22327;51.208;6.418;2023-05-07T00:36:11;9.43;;;7.30;;
36291;SDS011;22327;51.208;6.418;2023-05-07T00:38:37;7.40;;;6.68;;
36291;SDS011;22327;51.208;6.418;2023-05-07T00:41:02;7.75;;;6.00;;
36291;SDS011;22327;51.208;6.418;2023-05-07T00:43:28;6.32;;;5.45;;
36291;SDS011;22327;51.208;6.418;2023-05-07T00:45:54;7.60;;;6.68;;
36291;SDS011;22327;51.208;6.418;2023-05-07T00:48:20;8.15;;;6.57;;
36291;SDS011;22327;51.208;6.418;2023-05-07T00:50:46;7.22;;;6.32;;
36291;SDS011;22327;51.208;6.418;2023-05-07T00:53:12;6.63;;;5.95;;
36291;SDS011;22327;51.208;6.418;2023-05-07T00:55:38;7.15;;;6.38;;
36291;SDS011;22327;51.208;6.418;2023-05-07T00:58:04;10.55;;;6.03;;
36291;SDS011;22327;51.208;6.418;2023-05-07T01:00:30;8.10;;;5.53;;
36291;SDS011;22327;51.208;6.418;2023-05-07T01:02:56;6.82;;;6.13;;
36291;SDS011;22327;51.208;6.418;2023-05-07T01:05:22;7.05;;;6.35;;
36291;SDS011;22327;51.208;6.418;2023-05-07T01:07:49;8.43;;;6.38;;
36291;SDS011;22327;51.208;6.418;2023-05-07T01:10:16;7.50;;;6.35;;
36291;SDS011;22327;51.208;6.418;2023-05-07T01:12:42;8.70;;;7.20;;
36291;SDS011;22327;51.208;6.418;2023-05-07T01:15:09;7.63;;;6.93;;
36291;SDS011;22327;51.208;6.418;2023-05-07T01:17:35;7.32;;;5.80;;
36291;SDS011;22327;51.208;6.418;2023-05-07T01:20:02;8.95;;;6.35;;
36291;SDS011;22327;51.208;6.418;2023-05-07T01:22:30;6.45;;;5.85;;
36291;SDS011;22327;51.208;6.418;2023-05-07T01:25:01;7.85;;;6.40;;
36291;SDS011;22327;51.208;6.418;2023-05-07T01:27:28;7.93;;;6.40;;
36291;SDS011;22327;51.208;6.418;2023-05-07T01:29:53;7.80;;;5.53;;
36291;SDS011;22327;51.208;6.418;2023-05-07T01:32:21;7.60;;;6.28;;
36291;SDS011;22327;51.208;6.418;2023-05-07T01:34:58;6.18;;;5.38;;
36291;SDS011;22327;51.208;6.418;2023-05-07T01:37:26;5.88;;;5.28;;
36291;SDS011;22327;51.208;6.418;2023-05-07T01:39:52;6.20;;;5.60;;
36291;SDS011;22327;51.208;6.418;2023-05-07T01:42:18;6.68;;;5.90;;
36291;SDS011;22327;51.208;6.418;2023-05-07T01:44:44;6.03;;;5.32;;
36291;SDS011;22327;51.208;6.418;2023-05-07T01:47:10;6.70;;;5.70;;
36291;SDS011;22327;51.208;6.418;2023-05-07T01:49:36;5.82;;;5.20;;
36291;SDS011;22327;51.208;6.418;2023-05-07T01:52:02;6.75;;;5.65;;
36291;SDS011;22327;51.208;6.418;2023-05-07T01:54:28;7.10;;;5.47;;
36291;SDS011;22327;51.208;6.418;2023-05-07T01:56:55;6.13;;;5.20;;
36291;SDS011;22327;51.208;6.418;2023-05-07T01:59:21;6.95;;;4.78;;
36291;SDS011;22327;51.208;6.418;2023-05-07T02:01:46;5.75;;;4.40;;
36291;SDS011;22327;51.208;6.418;2023-05-07T02:04:12;8.80;;;5.25;;
36291;SDS011;22327;51.208;6.418;2023-05-07T02:06:38;4.70;;;4.13;;
36291;SDS011;22327;51.208;6.418;2023-05-07T02:09:03;6.22;;;4.43;;
36291;SDS011;22327;51.208;6.418;2023-05-07T02:11:29;5.22;;;4.50;;
36291;SDS011;22327;51.208;6.418;2023-05-07T02:13:55;5.75;;;4.38;;
36291;SDS011;22327;51.208;6.418;2023-05-07T02:16:20;6.15;;;4.47;;
36291;SDS011;22327;51.208;6.418;2023-05-07T02:18:47;5.38;;;4.82;;
36291;SDS011;22327;51.208;6.418;2023-05-07T02:21:12;5.75;;;5.07;;
36291;SDS011;22327;51.208;6.418;2023-05-07T02:23:38;5.88;;;5.38;;
36291;SDS011;22327;51.208;6.418;2023-05-07T02:26:04;6.70;;;5.05;;
36291;SDS011;22327;51.208;6.418;2023-05-07T02:28:29;6.38;;;5.50;;
36291;SDS011;22327;51.208;6.418;2023-05-07T02:30:55;7.22;;;5.22;;
36291;SDS011;22327;51.208;6.418;2023-05-07T02:33:20;6.53;;;5.65;;
36291;SDS011;22327;51.208;6.418;2023-05-07T02:35:46;8.40;;;5.47;;
36291;SDS011;22327;51.208;6.418;2023-05-07T02:38:11;5.97;;;4.82;;
36291;SDS011;22327;51.208;6.418;2023-05-07T02:40:37;7.40;;;5.88;;
36291;SDS011;22327;51.208;6.418;2023-05-07T02:43:06;6.55;;;5.95;;
36291;SDS011;22327;51.208;6.418;2023-05-07T02:45:32;6.75;;;6.15;;
36291;SDS011;22327;51.208;6.418;2023-05-07T02:47:58;7.07;;;5.97;;
36291;SDS011;22327;51.208;6.418;2023-05-07T02:50:23;6.68;;;5.88;;
36291;SDS011;22327;51.208;6.418;2023-05-07T02:52:50;8.63;;;5.40;;
36291;SDS011;22327;51.208;6.418;2023-05-07T02:55:15;5.90;;;5.30;;
36291;SDS011;22327;51.208;6.418;2023-05-07T02:57:41;7.65;;;5.40;;
36291;SDS011;22327;51.208;6.418;2023-05-07T03:02:39;6.38;;;5.45;;
36291;SDS011;22327;51.208;6.418;2023-05-07T03:05:05;6.78;;;5.03;;
36291;SDS011;22327;51.208;6.418;2023-05-07T03:07:31;5.15;;;4.50;;
36291;SDS011;22327;51.208;6.418;2023-05-07T03:09:57;6.13;;;4.93;;
36291;SDS011;22327;51.208;6.418;2023-05-07T03:12:23;5.03;;;4.50;;
36291;SDS011;22327;51.208;6.418;2023-05-07T03:14:48;5.30;;;4.45;;
36291;SDS011;22327;51.208;6.418;2023-05-07T03:17:13;5.68;;;4.65;;
36291;SDS011;22327;51.208;6.418;2023-05-07T03:19:41;4.90;;;4.40;;
36291;SDS011;22327;51.208;6.418;2023-05-07T03:22:06;5.13;;;4.07;;
36291;SDS011;22327;51.208;6.418;2023-05-07T03:24:32;4.55;;;4.15;;
36291;SDS011;22327;51.208;6.418;2023-05-07T03:26:57;4.85;;;4.35;;
36291;SDS011;22327;51.208;6.418;2023-05-07T03:29:23;5.47;;;4.00;;
36291;SDS011;22327;51.208;6.418;2023-05-07T03:31:48;4.85;;;3.78;;
36291;SDS011;22327;51.208;6.418;2023-05-07T03:34:14;5.85;;;4.00;;
36291;SDS011;22327;51.208;6.418;2023-05-07T03:36:40;4.35;;;3.95;;
36291;SDS011;22327;51.208;6.418;2023-05-07T03:39:05;5.10;;;3.88;;
36291;SDS011;22327;51.208;6.418;2023-05-07T03:41:32;4.05;;;3.65;;
36291;SDS011;22327;51.208;6.418;2023-05-07T03:43:57;4.57;;;3.92;;
36291;SDS011;22327;51.208;6.418;2023-05-07T03:46:23;5.38;;;4.50;;
36291;SDS011;22327;51.208;6.418;2023-05-07T03:48:51;4.47;;;4.07;;
36291;SDS011;22327;51.208;6.418;2023-05-07T03:51:16;5.28;;;4.00;;
36291;SDS011;22327;51.208;6.418;2023-05-07T03:53:42;5.40;;;4.25;;
36291;SDS011;22327;51.208;6.418;2023-05-07T03:56:07;6.65;;;4.13;;
36291;SDS011;22327;51.208;6.418;2023-05-07T03:58:33;6.47;;;5.00;;
36291;SDS011;22327;51.208;6.418;2023-05-07T04:00:58;5.38;;;4.25;;
36291;SDS011;22327;51.208;6.418;2023-05-07T04:03:24;5.32;;;4.57;;
36291;SDS011;22327;51.208;6.418;2023-05-07T04:05:49;7.45;;;4.32;;
36291;SDS011;22327;51.208;6.418;2023-05-07T04:08:15;6.13;;;4.90;;
36291;SDS011;22327;51.208;6.418;2023-05-07T04:10:40;4.80;;;4.38;;
36291;SDS011;22327;51.208;6.418;2023-05-07T04:13:06;4.95;;;4.15;;
36291;SDS011;22327;51.208;6.418;2023-05-07T04:15:31;6.15;;;5.03;;
36291;SDS011;22327;51.208;6.418;2023-05-07T04:17:57;6.97;;;4.90;;
36291;SDS011;22327;51.208;6.418;2023-05-07T04:20:23;6.68;;;4.82;;
36291;SDS011;22327;51.208;6.418;2023-05-07T04:22:48;6.55;;;4.72;;
36291;SDS011;22327;51.208;6.418;2023-05-07T04:25:15;6.05;;;4.70;;
36291;SDS011;22327;51.208;6.418;2023-05-07T04:27:41;5.55;;;5.05;;
36291;SDS011;22327;51.208;6.418;2023-05-07T04:30:07;5.65;;;5.05;;
36291;SDS011;22327;51.208;6.418;2023-05-07T04:32:32;5.65;;;4.50;;
36291;SDS011;22327;51.208;6.418;2023-05-07T04:34:58;5.75;;;4.90;;
36291;SDS011;22327;51.208;6.418;2023-05-07T04:37:25;4.65;;;3.88;;
36291;SDS011;22327;51.208;6.418;2023-05-07T04:39:50;4.88;;;4.38;;
36291;SDS011;22327;51.208;6.418;2023-05-07T04:42:16;4.43;;;4.03;;
36291;SDS011;22327;51.208;6.418;2023-05-07T04:44:44;5.50;;;4.97;;
36291;SDS011;22327;51.208;6.418;2023-05-07T04:47:10;6.95;;;4.45;;
36291;SDS011;22327;51.208;6.418;2023-05-07T04:49:36;5.18;;;4.68;;
36291;SDS011;22327;51.208;6.418;2023-05-07T04:52:03;4.85;;;4.40;;
36291;SDS011;22327;51.208;6.418;2023-05-07T04:54:28;5.15;;;4.32;;
36291;SDS011;22327;51.208;6.418;2023-05-07T04:56:54;6.15;;;4.18;;
36291;SDS011;22327;51.208;6.418;2023-05-07T04:59:20;4.43;;;3.90;;
36291;SDS011;22327;51.208;6.418;2023-05-07T05:01:46;4.78;;;3.80;;
36291;SDS011;22327;51.208;6.418;2023-05-07T05:04:11;4.43;;;3.97;;
36291;SDS011;22327;51.208;6.418;2023-05-07T05:06:37;4.65;;;4.10;;
36291;SDS011;22327;51.208;6.418;2023-05-07T05:09:03;4.30;;;3.90;;
36291;SDS011;22327;51.208;6.418;2023-05-07T05:11:29;4.88;;;4.20;;
36291;SDS011;22327;51.208;6.418;2023-05-07T05:13:55;6.30;;;4.80;;
36291;SDS011;22327;51.208;6.418;2023-05-07T05:16:21;5.05;;;4.40;;
36291;SDS011;22327;51.208;6.418;2023-05-07T05:18:47;5.13;;;4.63;;
36291;SDS011;22327;51.208;6.418;2023-05-07T05:21:12;5.03;;;4.18;;
36291;SDS011;22327;51.208;6.418;2023-05-07T05:23:38;5.88;;;4.88;;
36291;SDS011;22327;51.208;6.418;2023-05-07T05:26:04;5.85;;;4.47;;
36291;SDS011;22327;51.208;6.418;2023-05-07T05:28:29;5.38;;;4.53;;
36291;SDS011;22327;51.208;6.418;2023-05-07T05:30:55;5.40;;;4.32;;
36291;SDS011;22327;51.208;6.418;2023-05-07T05:33:20;5.53;;;4.60;;
36291;SDS011;22327;51.208;6.418;2023-05-07T05:35:46;5.40;;;3.80;;
36291;SDS011;22327;51.208;6.418;2023-05-07T05:38:11;5.10;;;3.72;;
36291;SDS011;22327;51.208;6.418;2023-05-07T05:40:37;5.50;;;3.60;;
36291;SDS011;22327;51.208;6.418;2023-05-07T05:43:02;4.05;;;3.65;;
36291;SDS011;22327;51.208;6.418;2023-05-07T05:45:28;4.93;;;2.90;;
36291;SDS011;22327;51.208;6.418;2023-05-07T05:47:55;3.20;;;2.90;;
36291;SDS011;22327;51.208;6.418;2023-05-07T05:50:21;5.32;;;3.63;;
36291;SDS011;22327;51.208;6.418;2023-05-07T05:52:47;3.20;;;2.90;;
36291;SDS011;22327;51.208;6.418;2023-05-07T05:55:12;4.15;;;2.72;;
36291;SDS011;22327;51.208;6.418;2023-05-07T05:57:38;3.10;;;2.80;;
36291;SDS011;22327;51.208;6.418;2023-05-07T06:00:03;3.47;;;3.17;;
36291;SDS011;22327;51.208;6.418;2023-05-07T06:02:30;3.97;;;3.25;;
36291;SDS011;22327;51.208;6.418;2023-05-07T06:04:55;3.10;;;2.83;;
36291;SDS011;22327;51.208;6.418;2023-05-07T06:07:21;2.90;;;2.67;;
36291;SDS011;22327;51.208;6.418;2023-05-07T06:09:46;3.88;;;2.60;;
36291;SDS011;22327;51.208;6.418;2023-05-07T06:12:12;2.83;;;2.63;;
36291;SDS011;22327;51.208;6.418;2023-05-07T06:14:37;3.42;;;3.13;;
36291;SDS011;22327;51.208;6.418;2023-05-07T06:17:03;2.88;;;2.55;;
36291;SDS011;22327;51.208;6.418;2023-05-07T06:19:28;4.25;;;3.25;;
36291;SDS011;22327;51.208;6.418;2023-05-07T06:21:54;3.60;;;2.67;;
36291;SDS011;22327;51.208;6.418;2023-05-07T06:24:21;3.00;;;2.47;;
36291;SDS011;22327;51.208;6.418;2023-05-07T06:26:47;3.92;;;2.53;;
36291;SDS011;22327;51.208;6.418;2023-05-07T06:29:12;3.08;;;2.40;;
36291;SDS011;22327;51.208;6.418;2023-05-07T06:31:38;2.10;;;1.90;;
36291;SDS011;22327;51.208;6.418;2023-05-07T06:34:04;3.83;;;2.40;;
36291;SDS011;22327;51.208;6.418;2023-05-07T06:36:30;3.55;;;2.17;;
36291;SDS011;22327;51.208;6.418;2023-05-07T06:38:55;4.50;;;2.30;;
36291;SDS011;22327;51.208;6.418;2023-05-07T06:41:21;2.55;;;2.28;;
36291;SDS011;22327;51.208;6.418;2023-05-07T06:43:46;3.70;;;2.15;;
36291;SDS011;22327;51.208;6.418;2023-05-07T06:46:12;3.42;;;2.30;;
36291;SDS011;22327;51.208;6.418;2023-05-07T06:48:37;2.95;;;2.20;;
36291;SDS011;22327;51.208;6.418;2023-05-07T06:51:05;2.75;;;2.22;;
36291;SDS011;22327;51.208;6.418;2023-05-07T06:53:30;2.35;;;2.15;;
36291;SDS011;22327;51.208;6.418;2023-05-07T06:55:56;3.05;;;2.35;;
36291;SDS011;22327;51.208;6.418;2023-05-07T06:58:22;2.15;;;1.95;;
36291;SDS011;22327;51.208;6.418;2023-05-07T07:00:47;2.40;;;1.77;;
36291;SDS011;22327;51.208;6.418;2023-05-07T07:03:13;2.88;;;2.15;;
36291;SDS011;22327;51.208;6.418;2023-05-07T07:05:40;3.17;;;2.05;;
36291;SDS011;22327;51.208;6.418;2023-05-07T07:08:06;3.38;;;2.08;;
36291;SDS011;22327;51.208;6.418;2023-05-07T07:10:32;1.75;;;1.65;;
36291;SDS011;22327;51.208;6.418;2023-05-07T07:12:57;3.03;;;1.80;;
36291;SDS011;22327;51.208;6.418;2023-05-07T07:15:23;3.67;;;1.77;;
36291;SDS011;22327;51.208;6.418;2023-05-07T07:17:50;1.67;;;1.58;;
36291;SDS011;22327;51.208;6.418;2023-05-07T07:20:15;2.00;;;1.70;;
36291;SDS011;22327;51.208;6.418;2023-05-07T07:22:41;1.73;;;1.63;;
36291;SDS011;22327;51.208;6.418;2023-05-07T07:25:07;1.88;;;1.75;;
36291;SDS011;22327;51.208;6.418;2023-05-07T07:27:33;2.55;;;1.77;;
36291;SDS011;22327;51.208;6.418;2023-05-07T07:29:58;2.90;;;1.75;;
36291;SDS011;22327;51.208;6.418;2023-05-07T07:32:24;2.67;;;1.85;;
36291;SDS011;22327;51.208;6.418;2023-05-07T07:34:49;2.30;;;2.10;;
36291;SDS011;22327;51.208;6.418;2023-05-07T07:37:15;2.03;;;1.83;;
36291;SDS011;22327;51.208;6.418;2023-05-07T07:39:40;2.67;;;1.92;;
36291;SDS011;22327;51.208;6.418;2023-05-07T07:42:06;4.25;;;2.00;;
36291;SDS011;22327;51.208;6.418;2023-05-07T07:44:31;2.55;;;1.80;;
36291;SDS011;22327;51.208;6.418;2023-05-07T07:46:57;3.80;;;2.38;;
36291;SDS011;22327;51.208;6.418;2023-05-07T07:49:22;3.08;;;1.70;;
36291;SDS011;22327;51.208;6.418;2023-05-07T07:51:48;2.45;;;1.90;;
36291;SDS011;22327;51.208;6.418;2023-05-07T07:54:13;3.25;;;1.88;;
36291;SDS011;22327;51.208;6.418;2023-05-07T07:56:39;1.95;;;1.75;;
36291;SDS011;22327;51.208;6.418;2023-05-07T07:59:05;3.33;;;1.50;;
36291;SDS011;22327;51.208;6.418;2023-05-07T08:01:30;2.80;;;1.52;;
36291;SDS011;22327;51.208;6.418;2023-05-07T08:03:56;2.55;;;1.48;;
36291;SDS011;22327;51.208;6.418;2023-05-07T08:06:23;2.40;;;1.50;;
36291;SDS011;22327;51.208;6.418;2023-05-07T08:08:50;3.03;;;1.40;;
36291;SDS011;22327;51.208;6.418;2023-05-07T08:11:16;2.25;;;1.40;;
36291;SDS011;22327;51.208;6.418;2023-05-07T08:13:41;2.05;;;1.85;;
36291;SDS011;22327;51.208;6.418;2023-05-07T08:16:07;1.58;;;1.30;;
36291;SDS011;22327;51.208;6.418;2023-05-07T08:18:33;2.33;;;1.48;;
36291;SDS011;22327;51.208;6.418;2023-05-07T08:20:58;1.23;;;1.10;;
36291;SDS011;22327;51.208;6.418;2023-05-07T08:23:24;3.83;;;1.30;;
36291;SDS011;22327;51.208;6.418;2023-05-07T08:25:49;1.40;;;1.30;;
36291;SDS011;22327;51.208;6.418;2023-05-07T08:28:16;1.90;;;1.50;;
36291;SDS011;22327;51.208;6.418;2023-05-07T08:30:41;2.13;;;1.17;;
36291;SDS011;22327;51.208;6.418;2023-05-07T08:33:08;1.48;;;1.33;;
36291;SDS011;22327;51.208;6.418;2023-05-07T08:35:34;1.55;;;1.30;;
36291;SDS011;22327;51.208;6.418;2023-05-07T08:38:00;3.15;;;1.40;;
36291;SDS011;22327;51.208;6.418;2023-05-07T08:40:26;1.63;;;1.35;;
36291;SDS011;22327;51.208;6.418;2023-05-07T08:42:52;2.08;;;1.60;;
36291;SDS011;22327;51.208;6.418;2023-05-07T08:45:19;2.15;;;1.23;;
36291;SDS011;22327;51.208;6.418;2023-05-07T08:47:54;2.05;;;1.50;;
36291;SDS011;22327;51.208;6.418;2023-05-07T08:50:23;4.93;;;1.40;;
36291;SDS011;22327;51.208;6.418;2023-05-07T08:52:49;1.60;;;1.50;;
36291;SDS011;22327;51.208;6.418;2023-05-07T08:55:15;2.08;;;1.90;;
36291;SDS011;22327;51.208;6.418;2023-05-07T08:57:41;2.03;;;1.85;;
36291;SDS011;22327;51.208;6.418;2023-05-07T09:00:07;2.28;;;1.70;;
36291;SDS011;22327;51.208;6.418;2023-05-07T09:02:34;2.33;;;1.45;;
36291;SDS011;22327;51.208;6.418;2023-05-07T09:05:01;3.28;;;1.50;;
36291;SDS011;22327;51.208;6.418;2023-05-07T09:07:26;1.65;;;1.55;;
36291;SDS011;22327;51.208;6.418;2023-05-07T09:09:52;2.13;;;1.63;;
36291;SDS011;22327;51.208;6.418;2023-05-07T09:12:20;2.92;;;1.33;;
36291;SDS011;22327;51.208;6.418;2023-05-07T09:14:46;2.40;;;1.38;;
36291;SDS011;22327;51.208;6.418;2023-05-07T09:17:12;2.13;;;1.30;;
36291;SDS011;22327;51.208;6.418;2023-05-07T09:19:38;1.77;;;1.60;;
36291;SDS011;22327;51.208;6.418;2023-05-07T09:22:04;2.47;;;1.13;;
36291;SDS011;22327;51.208;6.418;2023-05-07T09:24:32;2.20;;;1.30;;
36291;SDS011;22327;51.208;6.418;2023-05-07T09:27:03;2.53;;;1.48;;
36291;SDS011;22327;51.208;6.418;2023-05-07T09:29:29;2.05;;;1.30;;
36291;SDS011;22327;51.208;6.418;2023-05-07T09:32:00;2.45;;;1.48;;
36291;SDS011;22327;51.208;6.418;2023-05-07T09:34:27;2.00;;;0.90;;
36291;SDS011;22327;51.208;6.418;2023-05-07T09:36:54;2.65;;;1.98;;
36291;SDS011;22327;51.208;6.418;2023-05-07T09:39:21;1.40;;;1.30;;
36291;SDS011;22327;51.208;6.418;2023-05-07T09:41:48;2.70;;;1.20;;
36291;SDS011;22327;51.208;6.418;2023-05-07T09:44:19;1.33;;;1.23;;
36291;SDS011;22327;51.208;6.418;2023-05-07T09:46:46;2.55;;;1.02;;
36291;SDS011;22327;51.208;6.418;2023-05-07T09:49:21;1.17;;;0.88;;
36291;SDS011;22327;51.208;6.418;2023-05-07T09:51:48;1.38;;;1.20;;
36291;SDS011;22327;51.208;6.418;2023-05-07T09:54:15;0.98;;;0.80;;
36291;SDS011;22327;51.208;6.418;2023-05-07T09:56:42;1.10;;;0.90;;
36291;SDS011;22327;51.208;6.418;2023-05-07T09:59:12;2.85;;;1.00;;
36291;SDS011;22327;51.208;6.418;2023-05-07T10:01:40;1.38;;;0.88;;
36291;SDS011;22327;51.208;6.418;2023-05-07T10:04:09;1.13;;;0.95;;
36291;SDS011;22327;51.208;6.418;2023-05-07T10:06:35;1.15;;;0.90;;
36291;SDS011;22327;51.208;6.418;2023-05-07T10:09:02;1.67;;;0.90;;
36291;SDS011;22327;51.208;6.418;2023-05-07T10:11:30;1.95;;;0.95;;
36291;SDS011;22327;51.208;6.418;2023-05-07T10:14:00;1.60;;;0.77;;
36291;SDS011;22327;51.208;6.418;2023-05-07T10:16:27;1.25;;;0.80;;
36291;SDS011;22327;51.208;6.418;2023-05-07T10:18:57;1.42;;;0.80;;
36291;SDS011;22327;51.208;6.418;2023-05-07T10:21:23;1.52;;;0.80;;
36291;SDS011;22327;51.208;6.418;2023-05-07T10:26:25;0.65;;;0.60;;
36291;SDS011;22327;51.208;6.418;2023-05-07T10:28:54;1.17;;;0.82;;
36291;SDS011;22327;51.208;6.418;2023-05-07T10:34:09;1.45;;;0.82;;
36291;SDS011;22327;51.208;6.418;2023-05-07T10:36:38;1.50;;;0.93;;
36291;SDS011;22327;51.208;6.418;2023-05-07T10:39:04;1.92;;;1.42;;
36291;SDS011;22327;51.208;6.418;2023-05-07T10:41:31;1.63;;;1.20;;
36291;SDS011;22327;51.208;6.418;2023-05-07T10:43:56;2.03;;;1.30;;
36291;SDS011;22327;51.208;6.418;2023-05-07T10:46:22;1.40;;;1.25;;
36291;SDS011;22327;51.208;6.418;2023-05-07T10:51:25;1.85;;;1.33;;
36291;SDS011;22327;51.208;6.418;2023-05-07T10:56:39;1.80;;;1.15;;
36291;SDS011;22327;51.208;6.418;2023-05-07T11:04:28;1.77;;;1.40;;
36291;SDS011;22327;51.208;6.418;2023-05-07T11:15:08;2.42;;;1.92;;
36291;SDS011;22327;51.208;6.418;2023-05-07T11:17:51;3.08;;;1.52;;
36291;SDS011;22327;51.208;6.418;2023-05-07T11:20:18;2.70;;;1.65;;
36291;SDS011;22327;51.208;6.418;2023-05-07T11:22:45;2.60;;;1.60;;
36291;SDS011;22327;51.208;6.418;2023-05-07T11:25:11;2.45;;;1.40;;
36291;SDS011;22327;51.208;6.418;2023-05-07T11:27:43;2.17;;;1.58;;
36291;SDS011;22327;51.208;6.418;2023-05-07T11:30:09;2.65;;;1.10;;
36291;SDS011;22327;51.208;6.418;2023-05-07T11:32:36;2.67;;;1.15;;
36291;SDS011;22327;51.208;6.418;2023-05-07T11:35:01;2.20;;;1.30;;
36291;SDS011;22327;51.208;6.418;2023-05-07T11:37:27;1.48;;;1.30;;
36291;SDS011;22327;51.208;6.418;2023-05-07T11:44:57;2.45;;;1.23;;
36291;SDS011;22327;51.208;6.418;2023-05-07T11:47:23;3.40;;;1.10;;
36291;SDS011;22327;51.208;6.418;2023-05-07T11:49:49;2.53;;;1.20;;
36291;SDS011;22327;51.208;6.418;2023-05-07T11:52:17;2.10;;;1.15;;
36291;SDS011;22327;51.208;6.418;2023-05-07T11:54:53;2.53;;;1.08;;
36291;SDS011;22327;51.208;6.418;2023-05-07T11:57:20;1.80;;;0.60;;
36291;SDS011;22327;51.208;6.418;2023-05-07T11:59:46;0.57;;;0.45;;
36291;SDS011;22327;51.208;6.418;2023-05-07T12:02:17;0.70;;;0.45;;
36291;SDS011;22327;51.208;6.418;2023-05-07T12:04:42;1.10;;;0.60;;
36291;SDS011;22327;51.208;6.418;2023-05-07T12:07:11;4.00;;;0.90;;
36291;SDS011;22327;51.208;6.418;2023-05-07T12:09:38;1.52;;;0.68;;
36291;SDS011;22327;51.208;6.418;2023-05-07T12:12:04;1.35;;;1.00;;
36291;SDS011;22327;51.208;6.418;2023-05-07T12:14:30;1.20;;;0.82;;
36291;SDS011;22327;51.208;6.418;2023-05-07T12:16:57;2.47;;;1.10;;
36291;SDS011;22327;51.208;6.418;2023-05-07T12:19:24;1.92;;;1.20;;
36291;SDS011;22327;51.208;6.418;2023-05-07T12:21:49;2.38;;;1.05;;
36291;SDS011;22327;51.208;6.418;2023-05-07T12:24:15;3.15;;;1.00;;
36291;SDS011;22327;51.208;6.418;2023-05-07T12:26:41;2.58;;;0.98;;
36291;SDS011;22327;51.208;6.418;2023-05-07T12:29:08;1.10;;;0.80;;
36291;SDS011;22327;51.208;6.418;2023-05-07T12:31:33;1.67;;;1.02;;
36291;SDS011;22327;51.208;6.418;2023-05-07T12:33:59;5.63;;;1.10;;
36291;SDS011;22327;51.208;6.418;2023-05-07T12:36:25;1.58;;;1.00;;
36291;SDS011;22327;51.208;6.418;2023-05-07T12:38:50;3.13;;;0.98;;
36291;SDS011;22327;51.208;6.418;2023-05-07T12:41:16;1.80;;;1.00;;
36291;SDS011;22327;51.208;6.418;2023-05-07T12:43:44;2.45;;;1.20;;
36291;SDS011;22327;51.208;6.418;2023-05-07T12:46:11;1.70;;;0.80;;
36291;SDS011;22327;51.208;6.418;2023-05-07T12:48:43;1.08;;;1.00;;
36291;SDS011;22327;51.208;6.418;2023-05-07T12:51:10;2.80;;;1.15;;
36291;SDS011;22327;51.208;6.418;2023-05-07T12:53:41;2.35;;;1.33;;
36291;SDS011;22327;51.208;6.418;2023-05-07T12:56:08;2.05;;;1.30;;
36291;SDS011;22327;51.208;6.418;2023-05-07T12:58:34;2.05;;;1.25;;
36291;SDS011;22327;51.208;6.418;2023-05-07T13:01:05;1.88;;;1.45;;
36291;SDS011;22327;51.208;6.418;2023-05-07T13:03:32;1.83;;;1.10;;
36291;SDS011;22327;51.208;6.418;2023-05-07T13:06:07;1.77;;;1.27;;
36291;SDS011;22327;51.208;6.418;2023-05-07T13:08:40;3.15;;;1.52;;
36291;SDS011;22327;51.208;6.418;2023-05-07T13:11:08;3.80;;;1.45;;
36291;SDS011;22327;51.208;6.418;2023-05-07T13:13:35;3.53;;;1.42;;
36291;SDS011;22327;51.208;6.418;2023-05-07T13:16:02;1.83;;;1.00;;
36291;SDS011;22327;51.208;6.418;2023-05-07T13:18:31;2.65;;;1.15;;
36291;SDS011;22327;51.208;6.418;2023-05-07T13:20:57;4.65;;;1.50;;
36291;SDS011;22327;51.208;6.418;2023-05-07T13:23:23;1.35;;;1.10;;
36291;SDS011;22327;51.208;6.418;2023-05-07T13:25:49;2.75;;;1.10;;
36291;SDS011;22327;51.208;6.418;2023-05-07T13:28:15;2.75;;;1.10;;
36291;SDS011;22327;51.208;6.418;2023-05-07T13:30:41;1.75;;;0.98;;
36291;SDS011;22327;51.208;6.418;2023-05-07T13:33:07;2.10;;;1.20;;
36291;SDS011;22327;51.208;6.418;2023-05-07T13:35:33;2.40;;;0.90;;
36291;SDS011;22327;51.208;6.418;2023-05-07T13:37:59;1.85;;;0.90;;
36291;SDS011;22327;51.208;6.418;2023-05-07T13:40:24;2.35;;;1.25;;
36291;SDS011;22327;51.208;6.418;2023-05-07T13:42:50;2.97;;;1.10;;
36291;SDS011;22327;51.208;6.418;2023-05-07T13:45:17;1.73;;;1.05;;
36291;SDS011;22327;51.208;6.418;2023-05-07T13:47:43;1.08;;;0.95;;
36291;SDS011;22327;51.208;6.418;2023-05-07T13:50:11;1.75;;;1.27;;
36291;SDS011;22327;51.208;6.418;2023-05-07T13:52:38;2.63;;;1.13;;
36291;SDS011;22327;51.208;6.418;2023-05-07T13:55:08;2.22;;;1.20;;
36291;SDS011;22327;51.208;6.418;2023-05-07T13:57:34;3.80;;;1.60;;
36291;SDS011;22327;51.208;6.418;2023-05-07T14:00:00;2.00;;;1.27;;
36291;SDS011;22327;51.208;6.418;2023-05-07T14:02:25;2.90;;;1.38;;
36291;SDS011;22327;51.208;6.418;2023-05-07T14:04:51;2.17;;;1.02;;
36291;SDS011;22327;51.208;6.418;2023-05-07T14:07:16;2.58;;;1.70;;
36291;SDS011;22327;51.208;6.418;2023-05-07T14:09:42;2.15;;;1.10;;
36291;SDS011;22327;51.208;6.418;2023-05-07T14:12:07;2.20;;;1.00;;
36291;SDS011;22327;51.208;6.418;2023-05-07T14:14:33;2.35;;;1.20;;
36291;SDS011;22327;51.208;6.418;2023-05-07T14:16:59;1.42;;;1.10;;
36291;SDS011;22327;51.208;6.418;2023-05-07T14:19:24;2.58;;;1.20;;
36291;SDS011;22327;51.208;6.418;2023-05-07T14:21:50;2.33;;;1.15;;
36291;SDS011;22327;51.208;6.418;2023-05-07T14:24:15;2.55;;;1.00;;
36291;SDS011;22327;51.208;6.418;2023-05-07T14:26:41;2.00;;;1.17;;
36291;SDS011;22327;51.208;6.418;2023-05-07T14:29:06;3.53;;;1.88;;
36291;SDS011;22327;51.208;6.418;2023-05-07T14:31:32;1.45;;;1.30;;
36291;SDS011;22327;51.208;6.418;2023-05-07T14:33:58;3.50;;;1.80;;
36291;SDS011;22327;51.208;6.418;2023-05-07T14:36:24;2.72;;;1.70;;
36291;SDS011;22327;51.208;6.418;2023-05-07T14:38:51;2.90;;;1.65;;
36291;SDS011;22327;51.208;6.418;2023-05-07T14:41:18;1.80;;;1.63;;
36291;SDS011;22327;51.208;6.418;2023-05-07T14:43:45;3.53;;;1.90;;
36291;SDS011;22327;51.208;6.418;2023-05-07T14:46:15;4.25;;;1.95;;
36291;SDS011;22327;51.208;6.418;2023-05-07T14:48:41;2.88;;;1.90;;
36291;SDS011;22327;51.208;6.418;2023-05-07T14:51:08;5.15;;;2.28;;
36291;SDS011;22327;51.208;6.418;2023-05-07T14:53:33;9.90;;;2.78;;
36291;SDS011;22327;51.208;6.418;2023-05-07T14:55:59;6.20;;;2.35;;
36291;SDS011;22327;51.208;6.418;2023-05-07T14:58:25;3.65;;;2.22;;
36291;SDS011;22327;51.208;6.418;2023-05-07T15:00:50;3.65;;;2.42;;
36291;SDS011;22327;51.208;6.418;2023-05-07T15:03:16;7.00;;;2.30;;
36291;SDS011;22327;51.208;6.418;2023-05-07T15:05:42;6.40;;;2.95;;
36291;SDS011;22327;51.208;6.418;2023-05-07T15:08:07;5.13;;;2.65;;
36291;SDS011;22327;51.208;6.418;2023-05-07T15:10:36;7.95;;;2.63;;
36291;SDS011;22327;51.208;6.418;2023-05-07T15:13:06;7.60;;;3.10;;
36291;SDS011;22327;51.208;6.418;2023-05-07T15:15:33;3.85;;;3.13;;